Main page
METAR-TAF:

METAR-TAF

Airports :

Phrae Airport

Phrae, Thailand

latitude: 18-10N, longitude: 100-10E, elevation: 161 m

Current weather observation

The report was made 9 hours and 58 minutes ago, at 11:00 UTC
Wind 2 kt from the South
Temperature 27°C
Humidity 89%
Pressure 1010 hPa
Visibility: 8000 m
light rain

METAR: VTCP 011100Z 18002KT 8000 -RA NSC 27/25 Q1010 NOSIG

Time: 03:58 (20:58 UTC)

Forecast

The report was made 3 hours and 58 minutes ago, at 17:00 UTC
Forecast valid from 01 at 18 UTC to 02 at 18 UTC
Wind 5 kt from the South/Southwest
Visibility 10 km or more
Few clouds at a height of 3500 ft
Becoming
from 01 at 21 UTC to 01 at 23 UTC
Wind kt from the North
Visibility: 1500 m
mist
Becoming
from 02 at 01 UTC to 02 at 03 UTC
Wind 5 kt from the South
Visibility 10 km or more

TAF: VTCP 011700Z 0118/0218 20005KT 9999 FEW035 BECMG 0121/0123 00000KT 1500 BR BECMG 0201/0203 18005KT 9999 NSW

Weather observations and forecasts of more than 4000 airports (METAR and TAF reports).

The available stations are represented by yellow and red dots on the map.

Hover mouse over dot to see the name of the station.

Then click to see weather observations and forecasts.

To change the map : click on the green buttons with a black cross to zoom in, on the green button with a dash to zoom out, or on the green arrows for adjacent maps.


METAR-TAF: